createdAt,value
2023-01-11T00:00:16.318Z,968.25
2023-01-11T00:01:16.283Z,968.29
2023-01-11T00:02:16.340Z,968.25
2023-01-11T00:03:16.275Z,968.29
2023-01-11T00:04:16.301Z,968.31
2023-01-11T00:05:16.269Z,968.23
2023-01-11T00:06:16.271Z,968.26
2023-01-11T00:07:16.196Z,968.26
2023-01-11T00:08:16.259Z,968.20
2023-01-11T00:09:16.180Z,968.21
2023-01-11T00:10:16.202Z,968.20
2023-01-11T00:11:16.170Z,968.20
2023-01-11T00:12:16.184Z,968.12
2023-01-11T00:13:16.131Z,968.15
2023-01-11T00:14:16.127Z,968.11
2023-01-11T00:15:16.124Z,968.10
2023-01-11T00:16:16.211Z,968.13
2023-01-11T00:17:16.094Z,968.08
2023-01-11T00:18:16.140Z,968.02
2023-01-11T00:19:16.067Z,968.02
2023-01-11T00:20:16.064Z,968.03
2023-01-11T00:21:16.108Z,968.06
2023-01-11T00:22:16.066Z,968.05
2023-01-11T00:23:16.063Z,968.00
2023-01-11T00:24:16.034Z,968.03
2023-01-11T00:25:15.997Z,968.04
2023-01-11T00:26:16.011Z,968.00
2023-01-11T00:27:16.015Z,967.98
2023-01-11T00:28:15.991Z,968.04
2023-01-11T00:29:16.011Z,968.00
2023-01-11T00:30:15.948Z,967.99
2023-01-11T00:31:15.991Z,967.96
2023-01-11T00:32:15.943Z,967.99
2023-01-11T00:33:15.944Z,967.97
2023-01-11T00:34:15.944Z,967.88
2023-01-11T00:35:15.899Z,967.87
2023-01-11T00:36:16.045Z,967.88
2023-01-11T00:37:15.873Z,967.84
2023-01-11T00:38:15.878Z,967.88
2023-01-11T00:39:15.892Z,967.90
2023-01-11T00:40:15.869Z,967.85
2023-01-11T00:41:15.842Z,967.88
2023-01-11T00:42:15.808Z,967.85
2023-01-11T00:43:15.827Z,967.75
2023-01-11T00:44:15.823Z,967.72
2023-01-11T00:45:15.804Z,967.77
2023-01-11T00:46:15.864Z,967.69
2023-01-11T00:47:15.759Z,967.79
2023-01-11T00:48:15.763Z,967.68
2023-01-11T00:49:15.761Z,967.69
2023-01-11T00:50:15.734Z,967.73
2023-01-11T00:51:15.742Z,967.67
2023-01-11T00:52:15.744Z,967.71
2023-01-11T00:53:15.688Z,967.68
2023-01-11T00:54:15.746Z,967.65
2023-01-11T00:55:15.686Z,967.70
2023-01-11T00:56:15.687Z,967.66
2023-01-11T00:57:15.668Z,967.67
2023-01-11T00:58:15.646Z,967.69
2023-01-11T00:59:15.720Z,967.71
2023-01-11T01:00:15.651Z,967.72
2023-01-11T01:01:15.717Z,967.76
2023-01-11T01:02:15.647Z,967.70
2023-01-11T01:03:15.630Z,967.72
2023-01-11T01:04:15.582Z,967.69
2023-01-11T01:05:15.600Z,967.74
2023-01-11T01:06:15.570Z,967.72
2023-01-11T01:07:15.544Z,967.71
2023-01-11T01:08:15.541Z,967.73
2023-01-11T01:09:15.543Z,967.72
2023-01-11T01:10:15.534Z,967.73
2023-01-11T01:11:15.567Z,967.75
2023-01-11T01:12:15.478Z,967.73
2023-01-11T01:13:15.509Z,967.74
2023-01-11T01:14:15.484Z,967.73
2023-01-11T01:15:15.456Z,967.77
2023-01-11T01:16:15.525Z,967.67
2023-01-11T01:17:15.433Z,967.72
2023-01-11T01:18:15.431Z,967.76
2023-01-11T01:19:15.530Z,967.70
2023-01-11T01:20:15.424Z,967.71
2023-01-11T01:21:15.434Z,967.72
2023-01-11T01:22:15.435Z,967.70
2023-01-11T01:23:15.374Z,967.70
2023-01-11T01:24:15.358Z,967.69
2023-01-11T01:25:15.356Z,967.66
2023-01-11T01:26:15.377Z,967.63
2023-01-11T01:27:15.314Z,967.68
2023-01-11T01:28:15.304Z,967.71
2023-01-11T01:29:15.292Z,967.68
2023-01-11T01:30:15.296Z,967.69
2023-01-11T01:31:15.426Z,967.72
2023-01-11T01:32:15.300Z,967.70
2023-01-11T01:33:15.246Z,967.69
2023-01-11T01:34:15.254Z,967.73
2023-01-11T01:35:15.230Z,967.70
2023-01-11T01:36:15.239Z,967.73
2023-01-11T01:37:15.234Z,967.81
2023-01-11T01:38:15.242Z,967.72
2023-01-11T01:39:15.187Z,967.72
2023-01-11T01:40:15.187Z,967.69
2023-01-11T01:41:15.166Z,967.70
2023-01-11T01:42:15.165Z,967.70
2023-01-11T01:43:15.182Z,967.69
2023-01-11T01:44:15.185Z,967.66
2023-01-11T01:45:15.119Z,967.72
2023-01-11T01:46:15.159Z,967.70
2023-01-11T01:47:15.128Z,967.73
2023-01-11T01:48:15.084Z,967.72
2023-01-11T01:49:15.120Z,967.67
2023-01-11T01:50:15.075Z,967.64
2023-01-11T01:51:15.058Z,967.71
2023-01-11T01:52:15.069Z,967.70
2023-01-11T01:53:15.052Z,967.63
2023-01-11T01:54:15.037Z,967.69
2023-01-11T01:55:15.009Z,967.73
2023-01-11T01:56:14.994Z,967.68
2023-01-11T01:57:15.078Z,967.68
2023-01-11T01:58:14.996Z,967.64
2023-01-11T01:59:14.981Z,967.71
2023-01-11T02:00:14.975Z,967.66
2023-01-11T02:01:14.936Z,967.62
2023-01-11T02:02:14.930Z,967.59
2023-01-11T02:03:14.930Z,967.58
2023-01-11T02:04:14.917Z,967.56
2023-01-11T02:05:14.941Z,967.57
2023-01-11T02:06:14.915Z,967.54
2023-01-11T02:07:14.900Z,967.58
2023-01-11T02:08:14.871Z,967.54
2023-01-11T02:09:14.887Z,967.54
2023-01-11T02:10:14.857Z,967.52
2023-01-11T02:11:14.878Z,967.54
2023-01-11T02:12:14.858Z,967.55
2023-01-11T02:13:14.884Z,967.50
2023-01-11T02:14:14.839Z,967.50
2023-01-11T02:15:14.791Z,967.42
2023-01-11T02:16:14.857Z,967.43
2023-01-11T02:17:14.843Z,967.45
2023-01-11T02:18:14.835Z,967.42
2023-01-11T02:19:14.749Z,967.40
2023-01-11T02:20:14.813Z,967.37
2023-01-11T02:21:14.724Z,967.40
2023-01-11T02:22:14.728Z,967.36
2023-01-11T02:23:14.725Z,967.35
2023-01-11T02:24:14.708Z,967.38
2023-01-11T02:25:14.687Z,967.37
2023-01-11T02:26:14.672Z,967.35
2023-01-11T02:27:14.668Z,967.37
2023-01-11T02:28:14.800Z,967.37
2023-01-11T02:29:14.666Z,967.30
2023-01-11T02:30:14.638Z,967.26
2023-01-11T02:31:14.652Z,967.21
2023-01-11T02:32:14.600Z,967.16
2023-01-11T02:33:14.611Z,967.18
2023-01-11T02:34:14.608Z,967.18
2023-01-11T02:35:14.576Z,967.07
2023-01-11T02:36:14.559Z,967.11
2023-01-11T02:37:14.540Z,967.06
2023-01-11T02:38:14.627Z,967.02
2023-01-11T02:39:14.543Z,967.03
2023-01-11T02:40:14.553Z,967.02
2023-01-11T02:41:14.527Z,967.00
2023-01-11T02:42:14.496Z,967.02
2023-01-11T02:43:14.503Z,967.05
2023-01-11T02:44:14.481Z,967.03
2023-01-11T02:45:14.490Z,966.99
2023-01-11T02:46:14.519Z,966.97
2023-01-11T02:47:14.429Z,966.99
2023-01-11T02:48:14.440Z,966.96
2023-01-11T02:49:14.443Z,966.97
2023-01-11T02:50:14.415Z,966.96
2023-01-11T02:51:14.661Z,966.98
2023-01-11T02:52:14.390Z,966.95
2023-01-11T02:53:14.373Z,966.95
2023-01-11T02:54:14.375Z,966.95
2023-01-11T02:55:14.347Z,966.94
2023-01-11T02:56:14.393Z,966.91
2023-01-11T02:57:14.359Z,966.89
2023-01-11T02:58:14.327Z,966.93
2023-01-11T02:59:14.332Z,966.87
2023-01-11T03:00:14.286Z,966.89
2023-01-11T03:01:14.293Z,966.93
2023-01-11T03:02:14.310Z,966.81
2023-01-11T03:03:14.362Z,966.91
2023-01-11T03:04:14.242Z,966.92
2023-01-11T03:05:14.255Z,966.84
2023-01-11T03:06:14.256Z,966.82
2023-01-11T03:07:14.241Z,966.83
2023-01-11T03:08:14.233Z,966.78
2023-01-11T03:09:14.229Z,966.76
2023-01-11T03:10:14.204Z,966.77
2023-01-11T03:11:14.208Z,966.72
2023-01-11T03:12:14.182Z,966.68
2023-01-11T03:13:14.159Z,966.69
2023-01-11T03:14:14.182Z,966.73
2023-01-11T03:15:14.174Z,966.71
2023-01-11T03:16:14.189Z,966.70
2023-01-11T03:17:14.128Z,966.74
2023-01-11T03:18:14.112Z,966.73
2023-01-11T03:19:14.113Z,966.71
2023-01-11T03:20:14.107Z,966.76
2023-01-11T03:21:14.056Z,966.71
2023-01-11T03:22:14.060Z,966.69
2023-01-11T03:23:14.059Z,966.61
2023-01-11T03:24:14.034Z,966.56
2023-01-11T03:25:14.039Z,966.59
2023-01-11T03:26:14.046Z,966.51
2023-01-11T03:27:14.009Z,966.50
2023-01-11T03:28:14.001Z,966.51
2023-01-11T03:29:13.974Z,966.43
2023-01-11T03:30:13.973Z,966.47
2023-01-11T03:31:14.042Z,966.43
2023-01-11T03:32:13.978Z,966.40
2023-01-11T03:33:13.934Z,966.41
2023-01-11T03:34:13.938Z,966.40
2023-01-11T03:35:13.910Z,966.37
2023-01-11T03:36:13.919Z,966.34
2023-01-11T03:37:13.923Z,966.43
2023-01-11T03:38:13.868Z,966.42
2023-01-11T03:39:13.918Z,966.44
2023-01-11T03:40:13.893Z,966.42
2023-01-11T03:41:13.849Z,966.46
2023-01-11T03:42:13.852Z,966.43
2023-01-11T03:43:13.858Z,966.37
2023-01-11T03:44:13.805Z,966.40
2023-01-11T03:45:13.801Z,966.36
2023-01-11T03:46:13.808Z,966.35
2023-01-11T03:47:13.780Z,966.38
2023-01-11T03:48:13.786Z,966.31
2023-01-11T03:49:13.746Z,966.32
2023-01-11T03:50:13.797Z,966.28
2023-01-11T03:51:13.731Z,966.28
2023-01-11T03:52:13.745Z,966.23
2023-01-11T03:53:13.720Z,966.24
2023-01-11T03:54:13.719Z,966.17
2023-01-11T03:55:13.678Z,966.16
2023-01-11T03:56:13.734Z,966.13
2023-01-11T03:57:13.665Z,966.15
2023-01-11T03:58:13.680Z,966.12
2023-01-11T03:59:13.660Z,966.13
2023-01-11T04:00:13.630Z,966.10
2023-01-11T04:01:13.700Z,966.10
2023-01-11T04:02:13.681Z,966.08
2023-01-11T04:03:13.595Z,966.03
2023-01-11T04:04:13.625Z,966.07
2023-01-11T04:05:13.603Z,966.06
2023-01-11T04:06:13.632Z,966.01
2023-01-11T04:07:13.543Z,966.09
2023-01-11T04:08:13.588Z,966.06
2023-01-11T04:09:13.523Z,966.00
2023-01-11T04:10:13.529Z,966.00
2023-01-11T04:11:13.547Z,966.01
2023-01-11T04:12:13.542Z,966.02
2023-01-11T04:13:13.476Z,966.03
2023-01-11T04:14:13.497Z,966.05
2023-01-11T04:15:13.470Z,966.01
2023-01-11T04:16:13.488Z,966.04
2023-01-11T04:17:13.463Z,966.03
2023-01-11T04:18:13.427Z,966.02
2023-01-11T04:19:13.415Z,966.01
2023-01-11T04:20:13.505Z,965.92
2023-01-11T04:21:13.489Z,966.02
2023-01-11T04:22:13.431Z,966.01
2023-01-11T04:23:13.406Z,965.99
2023-01-11T04:24:13.379Z,966.03
2023-01-11T04:25:13.361Z,966.00
2023-01-11T04:26:13.333Z,965.98
2023-01-11T04:27:13.358Z,966.00
2023-01-11T04:28:13.342Z,966.00
2023-01-11T04:29:13.349Z,965.98
2023-01-11T04:30:13.326Z,965.97
2023-01-11T04:31:13.369Z,965.95
2023-01-11T04:32:13.684Z,965.96
2023-01-11T04:33:13.349Z,965.92
2023-01-11T04:34:13.276Z,965.91
2023-01-11T04:35:13.258Z,965.93
2023-01-11T04:36:13.296Z,965.97
2023-01-11T04:37:13.213Z,966.00
2023-01-11T04:38:13.250Z,965.94
2023-01-11T04:39:13.257Z,965.94
2023-01-11T04:40:13.217Z,965.95
2023-01-11T04:41:13.216Z,965.94
2023-01-11T04:42:13.175Z,966.01
2023-01-11T04:43:13.244Z,966.00
2023-01-11T04:44:13.185Z,966.01
2023-01-11T04:45:13.158Z,965.96
2023-01-11T04:46:13.131Z,965.96
2023-01-11T04:47:13.099Z,965.97
2023-01-11T04:48:13.106Z,966.01
2023-01-11T04:49:13.188Z,966.00
2023-01-11T04:50:13.151Z,965.95
2023-01-11T04:51:13.082Z,965.98
2023-01-11T04:52:13.072Z,965.98
2023-01-11T04:53:13.034Z,965.93
2023-01-11T04:54:13.086Z,965.94
2023-01-11T04:55:13.027Z,965.93
2023-01-11T04:56:13.028Z,965.93
2023-01-11T04:57:13.030Z,965.93
2023-01-11T04:58:12.995Z,965.95
2023-01-11T04:59:12.993Z,965.93
2023-01-11T05:00:12.970Z,965.92
2023-01-11T05:01:13.022Z,965.90
2023-01-11T05:02:12.964Z,965.88
2023-01-11T05:03:12.925Z,965.94
2023-01-11T05:04:13.667Z,965.95
2023-01-11T05:05:21.722Z,965.89
2023-01-11T05:06:12.944Z,965.90
2023-01-11T05:07:12.909Z,965.89
2023-01-11T05:08:12.909Z,965.85
2023-01-11T05:09:12.856Z,965.83
2023-01-11T05:10:12.871Z,965.88
2023-01-11T05:11:12.866Z,965.86
2023-01-11T05:12:12.829Z,965.88
2023-01-11T05:13:12.834Z,965.87
2023-01-11T05:14:12.844Z,965.90
2023-01-11T05:15:12.796Z,965.89
2023-01-11T05:16:12.831Z,965.89
2023-01-11T05:17:12.771Z,965.86
2023-01-11T05:18:12.802Z,965.84
2023-01-11T05:19:12.783Z,965.82
2023-01-11T05:20:12.785Z,965.86
2023-01-11T05:21:12.723Z,965.82
2023-01-11T05:22:12.727Z,965.86
2023-01-11T05:23:12.716Z,965.94
2023-01-11T05:24:12.733Z,965.85
2023-01-11T05:25:12.715Z,965.85
2023-01-11T05:26:12.727Z,965.82
2023-01-11T05:27:12.655Z,965.85
2023-01-11T05:28:12.680Z,965.83
2023-01-11T05:29:12.676Z,965.78
2023-01-11T05:30:12.648Z,965.76
2023-01-11T05:31:12.663Z,965.75
2023-01-11T05:32:12.610Z,965.76
2023-01-11T05:33:12.589Z,965.69
2023-01-11T05:34:12.608Z,965.69
2023-01-11T05:35:12.610Z,965.74
2023-01-11T05:36:12.595Z,965.69
2023-01-11T05:37:12.593Z,965.62
2023-01-11T05:38:12.555Z,965.64
2023-01-11T05:39:12.545Z,965.70
2023-01-11T05:40:12.515Z,965.80
2023-01-11T05:41:12.526Z,965.87
2023-01-11T05:42:12.549Z,965.81
2023-01-11T05:43:12.519Z,965.86
2023-01-11T05:44:12.479Z,965.85
2023-01-11T05:45:12.468Z,965.83
2023-01-11T05:46:12.510Z,965.83
2023-01-11T05:47:12.460Z,965.81
2023-01-11T05:48:12.453Z,965.82
2023-01-11T05:49:12.468Z,965.83
2023-01-11T05:50:12.401Z,965.80
2023-01-11T05:51:12.414Z,965.81
2023-01-11T05:52:12.397Z,965.82
2023-01-11T05:53:12.390Z,965.78
2023-01-11T05:54:12.420Z,965.79
2023-01-11T05:55:12.397Z,965.82
2023-01-11T05:56:12.338Z,965.73
2023-01-11T05:57:12.357Z,965.76
2023-01-11T05:58:12.346Z,965.79
2023-01-11T05:59:12.342Z,965.80
2023-01-11T06:00:12.331Z,965.80
2023-01-11T06:01:12.307Z,965.77
2023-01-11T06:02:12.379Z,965.79
2023-01-11T06:03:12.323Z,965.82
2023-01-11T06:04:12.265Z,965.81
2023-01-11T06:05:12.278Z,965.78
2023-01-11T06:06:12.279Z,965.75
2023-01-11T06:07:12.218Z,965.75
2023-01-11T06:08:12.203Z,965.72
2023-01-11T06:09:12.216Z,965.77
2023-01-11T06:10:12.228Z,965.78
2023-01-11T06:11:12.200Z,965.79
2023-01-11T06:12:12.204Z,965.78
2023-01-11T06:13:12.146Z,965.77
2023-01-11T06:14:12.178Z,965.72
2023-01-11T06:15:12.147Z,965.79
2023-01-11T06:16:12.209Z,965.74
2023-01-11T06:17:12.152Z,965.81
2023-01-11T06:18:12.089Z,965.85
2023-01-11T06:19:12.091Z,965.83
2023-01-11T06:20:12.075Z,965.79
2023-01-11T06:21:12.083Z,965.75
2023-01-11T06:22:12.085Z,965.74
2023-01-11T06:23:12.088Z,965.74
2023-01-11T06:24:12.050Z,965.65
2023-01-11T06:25:12.026Z,965.67
2023-01-11T06:26:12.019Z,965.66
2023-01-11T06:27:12.030Z,965.71
2023-01-11T06:28:12.119Z,965.65
2023-01-11T06:29:11.971Z,965.66
2023-01-11T06:30:11.993Z,965.70
2023-01-11T06:31:12.042Z,965.63
2023-01-11T06:32:11.956Z,965.67
2023-01-11T06:33:11.957Z,965.63
2023-01-11T06:34:11.925Z,965.59
2023-01-11T06:35:11.898Z,965.55
2023-01-11T06:36:11.913Z,965.54
2023-01-11T06:37:11.883Z,965.53
2023-01-11T06:38:11.913Z,965.58
2023-01-11T06:39:11.892Z,965.56
2023-01-11T06:40:11.847Z,965.58
2023-01-11T06:41:11.862Z,965.54
2023-01-11T06:42:11.835Z,965.51
2023-01-11T06:43:11.821Z,965.57
2023-01-11T06:44:11.848Z,965.48
2023-01-11T06:45:11.846Z,965.48
2023-01-11T06:46:11.895Z,965.48
2023-01-11T06:47:11.802Z,965.47
2023-01-11T06:48:11.770Z,965.42
2023-01-11T06:49:11.766Z,965.45
2023-01-11T06:50:11.769Z,965.41
2023-01-11T06:51:11.768Z,965.39
2023-01-11T06:52:11.741Z,965.39
2023-01-11T06:53:11.704Z,965.40
2023-01-11T06:54:11.746Z,965.40
2023-01-11T06:55:11.696Z,965.41
2023-01-11T06:56:11.702Z,965.42
2023-01-11T06:57:11.711Z,965.37
2023-01-11T06:58:11.743Z,965.40
2023-01-11T06:59:11.650Z,965.48
2023-01-11T07:00:11.633Z,965.38
2023-01-11T07:01:11.699Z,965.43
2023-01-11T07:02:11.665Z,965.43
2023-01-11T07:03:11.664Z,965.44
2023-01-11T07:04:11.577Z,965.44
2023-01-11T07:05:11.628Z,965.45
2023-01-11T07:06:11.575Z,965.40
2023-01-11T07:07:11.574Z,965.42
2023-01-11T07:08:11.533Z,965.44
2023-01-11T07:09:11.536Z,965.48
2023-01-11T07:10:11.518Z,965.40
2023-01-11T07:11:11.597Z,965.44
2023-01-11T07:12:11.502Z,965.45
2023-01-11T07:13:11.499Z,965.51
2023-01-11T07:14:11.512Z,965.53
2023-01-11T07:15:11.458Z,965.51
2023-01-11T07:16:11.545Z,965.56
2023-01-11T07:17:11.454Z,965.53
2023-01-11T07:18:11.466Z,965.51
2023-01-11T07:19:11.436Z,965.48
2023-01-11T07:20:11.399Z,965.52
2023-01-11T07:21:11.407Z,965.50
2023-01-11T07:22:11.400Z,965.58
2023-01-11T07:23:11.385Z,965.51
2023-01-11T07:24:11.387Z,965.56
2023-01-11T07:25:11.342Z,965.55
2023-01-11T07:26:11.363Z,965.60
2023-01-11T07:27:11.347Z,965.57
2023-01-11T07:28:11.307Z,965.51
2023-01-11T07:29:11.321Z,965.52
2023-01-11T07:30:11.325Z,965.49
2023-01-11T07:31:11.352Z,965.52
2023-01-11T07:32:11.272Z,965.48
2023-01-11T07:33:11.296Z,965.51
2023-01-11T07:34:11.309Z,965.48
2023-01-11T07:35:11.294Z,965.43
2023-01-11T07:36:11.226Z,965.46
2023-01-11T07:37:28.273Z,965.47
2023-01-11T07:38:12.343Z,965.43
2023-01-11T07:39:11.227Z,965.46
2023-01-11T07:40:11.203Z,965.42
2023-01-11T07:41:11.201Z,965.46
2023-01-11T07:42:11.154Z,965.37
2023-01-11T07:43:11.204Z,965.35
2023-01-11T07:44:11.136Z,965.38
2023-01-11T07:45:11.142Z,965.30
2023-01-11T07:46:11.237Z,965.41
2023-01-11T07:47:11.185Z,965.41
2023-01-11T07:48:11.093Z,965.35
2023-01-11T07:49:11.115Z,965.31
2023-01-11T07:50:11.158Z,965.36
2023-01-11T07:51:11.076Z,965.38
2023-01-11T07:52:11.063Z,965.37
2023-01-11T07:53:11.077Z,965.38
2023-01-11T07:54:11.037Z,965.35
2023-01-11T07:55:11.011Z,965.33
2023-01-11T07:56:11.036Z,965.38
2023-01-11T07:57:10.998Z,965.32
2023-01-11T07:58:10.992Z,965.31
2023-01-11T07:59:10.974Z,965.37
2023-01-11T08:00:11.026Z,965.27
2023-01-11T08:01:10.944Z,965.31
2023-01-11T08:02:10.955Z,965.30
2023-01-11T08:03:11.163Z,965.27
2023-01-11T08:04:10.960Z,965.25
2023-01-11T08:05:10.904Z,965.23
2023-01-11T08:06:10.945Z,965.20
2023-01-11T08:07:10.899Z,965.22
2023-01-11T08:08:10.899Z,965.14
2023-01-11T08:09:10.883Z,965.20
2023-01-11T08:10:10.882Z,965.19
2023-01-11T08:11:10.876Z,965.15
2023-01-11T08:12:10.821Z,965.20
2023-01-11T08:13:10.828Z,965.16
2023-01-11T08:14:10.810Z,965.14
2023-01-11T08:15:10.816Z,965.14
2023-01-11T08:16:10.851Z,965.17
2023-01-11T08:17:10.765Z,965.18
2023-01-11T08:18:10.755Z,965.09
2023-01-11T08:19:10.773Z,965.11
2023-01-11T08:20:10.751Z,965.09
2023-01-11T08:21:10.759Z,965.12
2023-01-11T08:22:10.744Z,965.12
2023-01-11T08:23:10.698Z,965.10
2023-01-11T08:24:10.769Z,965.08
2023-01-11T08:25:10.697Z,965.00
2023-01-11T08:26:10.684Z,965.04
2023-01-11T08:27:10.718Z,965.03
2023-01-11T08:28:10.699Z,965.03
2023-01-11T08:29:10.635Z,965.05
2023-01-11T08:30:10.629Z,965.09
2023-01-11T08:31:10.687Z,965.00
2023-01-11T08:32:10.617Z,965.04
2023-01-11T08:33:10.629Z,965.06
2023-01-11T08:34:10.582Z,965.04
2023-01-11T08:35:10.588Z,965.08
2023-01-11T08:36:10.558Z,965.08
2023-01-11T08:37:10.593Z,965.07
2023-01-11T08:38:10.558Z,965.10
2023-01-11T08:39:10.528Z,965.08
2023-01-11T08:40:10.544Z,965.07
2023-01-11T08:41:10.543Z,965.11
2023-01-11T08:42:10.493Z,965.08
2023-01-11T08:43:10.515Z,965.08
2023-01-11T08:44:11.687Z,965.13
2023-01-11T08:45:10.453Z,965.19
2023-01-11T08:46:10.542Z,965.18
2023-01-11T08:47:10.452Z,965.17
2023-01-11T08:48:10.447Z,965.23
2023-01-11T08:49:10.425Z,965.23
2023-01-11T08:50:10.429Z,965.27
2023-01-11T08:51:10.398Z,965.27
2023-01-11T08:52:10.401Z,965.24
2023-01-11T08:53:12.291Z,965.32
2023-01-11T08:54:10.440Z,965.35
2023-01-11T08:55:10.386Z,965.36
2023-01-11T08:56:10.367Z,965.37
2023-01-11T08:57:10.320Z,965.28
2023-01-11T08:58:10.326Z,965.26
2023-01-11T08:59:10.301Z,965.34
2023-01-11T09:00:10.309Z,965.31
2023-01-11T09:01:10.305Z,965.28
2023-01-11T09:02:10.265Z,965.25
2023-01-11T09:03:10.343Z,965.28
2023-01-11T09:04:23.792Z,965.25
2023-01-11T09:05:11.276Z,965.31
2023-01-11T09:06:10.256Z,965.27
2023-01-11T09:07:10.210Z,965.28
2023-01-11T09:08:10.205Z,965.23
2023-01-11T09:09:10.202Z,965.26
2023-01-11T09:10:10.261Z,965.26
2023-01-11T09:11:10.225Z,965.24
2023-01-11T09:12:10.184Z,965.23
2023-01-11T09:13:10.717Z,965.20
2023-01-11T09:14:10.138Z,965.17
2023-01-11T09:15:10.136Z,965.21
2023-01-11T09:16:10.205Z,965.13
2023-01-11T09:17:10.120Z,965.13
2023-01-11T09:18:10.091Z,965.13
2023-01-11T09:19:10.094Z,965.07
2023-01-11T09:20:10.069Z,965.11
2023-01-11T09:21:10.705Z,965.07
2023-01-11T09:22:10.065Z,965.08
2023-01-11T09:23:10.073Z,965.14
2023-01-11T09:24:10.021Z,965.05
2023-01-11T09:25:10.025Z,964.99
2023-01-11T09:26:10.019Z,965.05
2023-01-11T09:27:10.030Z,965.03
2023-01-11T09:28:09.993Z,965.09
2023-01-11T09:29:10.038Z,965.02
2023-01-11T09:30:09.970Z,965.02
2023-01-11T09:31:09.965Z,965.09
2023-01-11T09:32:10.264Z,965.06
2023-01-11T09:33:09.928Z,965.04
2023-01-11T09:34:09.934Z,965.04
2023-01-11T09:35:09.937Z,965.09
2023-01-11T09:36:09.889Z,965.12
2023-01-11T09:37:09.873Z,965.11
2023-01-11T09:38:09.891Z,965.09
2023-01-11T09:39:09.869Z,965.10
2023-01-11T09:40:11.410Z,965.04
2023-01-11T09:41:09.869Z,965.00
2023-01-11T09:42:09.841Z,965.03
2023-01-11T09:43:09.849Z,965.02
2023-01-11T09:44:09.823Z,965.09
2023-01-11T09:45:09.799Z,965.08
2023-01-11T09:46:09.818Z,965.06
2023-01-11T09:47:09.764Z,965.04
2023-01-11T09:48:09.770Z,965.07
2023-01-11T09:49:09.755Z,965.05
2023-01-11T09:50:09.730Z,965.06
2023-01-11T09:51:09.742Z,965.05
2023-01-11T09:52:09.712Z,965.06
2023-01-11T09:53:09.713Z,965.09
2023-01-11T09:54:09.707Z,965.09
2023-01-11T09:55:09.703Z,965.05
2023-01-11T09:56:09.668Z,965.03
2023-01-11T09:57:09.675Z,964.99
2023-01-11T09:58:09.715Z,965.00
2023-01-11T09:59:09.642Z,964.99
2023-01-11T10:00:09.628Z,964.93
2023-01-11T10:01:09.689Z,965.02
2023-01-11T10:02:09.619Z,964.96
2023-01-11T10:03:09.620Z,964.89
2023-01-11T10:04:09.587Z,964.87
2023-01-11T10:05:09.677Z,964.78
2023-01-11T10:06:09.570Z,964.77
2023-01-11T10:07:09.552Z,964.83
2023-01-11T10:18:29.957Z,964.84
2023-01-11T10:18:30.321Z,964.77
2023-01-11T10:18:38.801Z,964.76
2023-01-11T10:18:39.852Z,964.74
2023-01-11T10:18:40.560Z,964.69
2023-01-11T10:19:37.706Z,964.71
2023-01-11T10:20:10.488Z,964.69
2023-01-11T10:21:09.464Z,964.75
2023-01-11T10:22:09.373Z,964.68
2023-01-11T10:23:09.365Z,964.71
2023-01-11T10:24:09.363Z,964.64
2023-01-11T10:25:11.323Z,964.67
2023-01-11T10:26:09.388Z,964.66
2023-01-11T10:27:09.459Z,964.62
2023-01-11T10:28:09.361Z,964.67
2023-01-11T10:29:09.322Z,964.67
2023-01-11T10:30:09.360Z,964.67
2023-01-11T10:31:09.329Z,964.65
2023-01-11T10:32:09.261Z,964.68
2023-01-11T10:33:09.265Z,964.61
2023-01-11T10:34:09.265Z,964.64
2023-01-11T10:35:09.261Z,964.60
2023-01-11T10:36:09.242Z,964.59
2023-01-11T10:37:09.240Z,964.59
2023-01-11T10:38:09.195Z,964.59
2023-01-11T10:39:09.237Z,964.58
2023-01-11T10:40:09.182Z,964.59
2023-01-11T10:41:09.198Z,964.59
2023-01-11T10:42:09.177Z,964.61
2023-01-11T10:43:09.240Z,964.59
2023-01-11T10:44:09.130Z,964.59
2023-01-11T10:45:09.127Z,964.64
2023-01-11T10:46:09.174Z,964.60
2023-01-11T10:47:09.147Z,964.56
2023-01-11T10:48:09.107Z,964.57
2023-01-11T10:49:09.075Z,964.53
2023-01-11T10:50:09.061Z,964.46
2023-01-11T10:51:09.078Z,964.42
2023-01-11T10:53:09.083Z,964.31
2023-01-11T10:54:09.056Z,964.38
2023-01-11T10:55:09.067Z,964.31
2023-01-11T10:56:08.996Z,964.31
2023-01-11T10:57:09.143Z,964.40
2023-01-11T10:58:09.023Z,964.34
2023-01-11T10:59:09.013Z,964.32
2023-01-11T11:00:09.000Z,964.24
2023-01-11T11:01:09.011Z,964.24
2023-01-11T11:02:09.015Z,964.23
2023-01-11T11:03:08.971Z,964.26
2023-01-11T11:04:08.953Z,964.26
2023-01-11T11:05:08.929Z,964.29
2023-01-11T11:06:08.923Z,964.27
2023-01-11T11:07:08.880Z,964.27
2023-01-11T11:08:08.945Z,964.23
2023-01-11T11:09:08.876Z,964.24
2023-01-11T11:10:08.872Z,964.21
2023-01-11T11:11:08.865Z,964.22
2023-01-11T11:12:08.847Z,964.19
2023-01-11T11:13:08.811Z,964.18
2023-01-11T11:14:08.816Z,964.24
2023-01-11T11:15:08.825Z,964.11
2023-01-11T11:16:08.859Z,964.17
2023-01-11T11:17:08.795Z,964.16
2023-01-11T11:18:08.847Z,964.11
2023-01-11T11:19:08.751Z,964.14
2023-01-11T11:20:08.742Z,964.07
2023-01-11T11:21:08.825Z,964.14
2023-01-11T11:22:08.733Z,964.08
2023-01-11T11:23:08.739Z,964.09
2023-01-11T11:24:08.690Z,964.05
2023-01-11T11:25:08.689Z,964.01
2023-01-11T11:26:08.679Z,964.05
2023-01-11T11:27:08.786Z,963.98
2023-01-11T11:28:08.700Z,964.01
2023-01-11T11:29:08.632Z,963.97
2023-01-11T11:30:08.631Z,963.96
2023-01-11T11:31:08.636Z,963.92
2023-01-11T11:32:08.600Z,963.91
2023-01-11T11:33:08.628Z,963.90
2023-01-11T11:34:08.618Z,963.87
2023-01-11T11:35:08.565Z,963.83
2023-01-11T11:36:08.592Z,963.86
2023-01-11T11:37:08.569Z,963.88
2023-01-11T11:38:08.534Z,963.85
2023-01-11T11:39:08.527Z,963.86
2023-01-11T11:40:08.511Z,963.81
2023-01-11T11:41:08.507Z,963.80
2023-01-11T11:42:08.526Z,963.80
2023-01-11T11:43:08.517Z,963.86
2023-01-11T11:44:08.485Z,963.81
2023-01-11T11:45:08.502Z,963.78
2023-01-11T11:46:08.522Z,963.79
2023-01-11T11:47:08.490Z,963.75
2023-01-11T11:48:08.420Z,963.78
2023-01-11T11:49:08.419Z,963.74
2023-01-11T11:50:08.435Z,963.73
2023-01-11T11:51:08.424Z,963.67
2023-01-11T11:52:08.428Z,963.64
2023-01-11T11:53:08.381Z,963.62
2023-01-11T11:54:08.374Z,963.60
2023-01-11T11:55:08.354Z,963.62
2023-01-11T11:56:08.358Z,963.67
2023-01-11T11:57:08.367Z,963.61
2023-01-11T11:58:08.323Z,963.58
2023-01-11T11:59:08.295Z,963.57
2023-01-11T12:00:08.316Z,963.57
2023-01-11T12:01:08.288Z,963.53
2023-01-11T12:02:08.319Z,963.65
2023-01-11T12:03:08.300Z,963.50
2023-01-11T12:04:08.242Z,963.52
2023-01-11T12:05:08.283Z,963.53
2023-01-11T12:06:08.268Z,963.53
2023-01-11T12:07:08.232Z,963.48
2023-01-11T12:08:08.233Z,963.54
2023-01-11T12:09:08.187Z,963.59
2023-01-11T12:10:08.191Z,963.58
2023-01-11T12:11:08.182Z,963.57
2023-01-11T12:12:08.166Z,963.58
2023-01-11T12:13:08.166Z,963.62
2023-01-11T12:14:08.163Z,963.65
2023-01-11T12:15:08.120Z,963.57
2023-01-11T12:16:08.129Z,963.65
2023-01-11T12:17:08.111Z,963.52
2023-01-11T12:18:08.111Z,963.52
2023-01-11T12:19:08.125Z,963.50
2023-01-11T12:20:08.125Z,963.47
2023-01-11T12:21:08.066Z,963.57
2023-01-11T12:22:08.066Z,963.40
2023-01-11T12:23:08.078Z,963.47
2023-01-11T12:24:08.051Z,963.42
2023-01-11T12:25:08.053Z,963.39
2023-01-11T12:26:07.995Z,963.39
2023-01-11T12:27:08.076Z,963.40
2023-01-11T12:28:07.987Z,963.34
2023-01-11T12:29:07.984Z,963.38
2023-01-11T12:30:07.992Z,963.39
2023-01-11T12:31:08.042Z,963.37
2023-01-11T12:32:07.943Z,963.30
2023-01-11T12:33:07.923Z,963.33
2023-01-11T12:34:07.910Z,963.28
2023-01-11T12:35:07.909Z,963.27